AIRPORT MAP

 RUNWAY INFORMATION

Runway 12 Runway length 7161 ft Runway width 148 ft
Runway elevation 292 ft Runway displaced threshold 0 ft Runway heading 127
Runway 30 Runway length 7161 ft Runway width 148 ft
Runway elevation 289 ft Runway displaced threshold 0 ft Runway heading 307

 AIRPORT FREQUENCIES

Type APP Name JAYAPURA A Frequency 119.1 MHZ
Type ATIS Name ATIS Frequency 128.8 MHZ
Type INFO Name JAYAPURA I Frequency 295.6 MHZ
Type TWR Name TWR Frequency 118.1 MHZ

 AIRPORT NEAR NAVIGATION AIDS

Type VOR-DME Name Jayapura Frequency 116200 KHZ
Type NDB Name Jayapura Frequency 395 KHZ

 METAR AND TAF INFORMATION

METAR FOR WAJJ
ADDS - METARS form results

(0856 UTC 27 May 2020)
Data provider http://aviationweather.gov/metar/data/
 
METAR text: WAJJ 270830Z 25005KT 9999 SCT013 29/25 Q1010 NOSIG
Conditions at: WAJJ (JAYAPURA/SENTANI, ID) observed 0830 UTC 27 May 2020
Temperature: 29.0°C (84°F)
Dewpoint: 25.0°C (77°F) [RH = 79%]
Pressure (altimeter): 29.82 inches Hg (1010.0 mb)
Winds: from the WSW (250 degrees) at 6 MPH (5 knots; 2.6 m/s)
Visibility: 6 or more miles (10+ km)
Ceiling: at least 12,000 feet AGL
Clouds: scattered clouds at 1300 feet AGL
Weather: no significant weather observed at this time

METAR text: WAJJ 270800Z 28006KT 9999 FEW013 30/25 Q1009 NOSIG
Conditions at: WAJJ (JAYAPURA/SENTANI, ID) observed 0800 UTC 27 May 2020
Temperature: 30.0°C (86°F)
Dewpoint: 25.0°C (77°F) [RH = 75%]
Pressure (altimeter): 29.79 inches Hg (1009.0 mb)
Winds: from the W (280 degrees) at 7 MPH (6 knots; 3.1 m/s)
Visibility: 6 or more miles (10+ km)
Ceiling: at least 12,000 feet AGL
Clouds: few clouds at 1300 feet AGL
Weather: no significant weather observed at this time